RJOO/ITM METAR and TAF weather

Enter ICAO airport designator
Station Type Date Time Source
RJOO METAR 2019/08/26 07:00 UTC NOAA

RJOO 260700Z 21005KT 160V260 9999 FEW030 BKN/// 31/19 Q1011


Station Type Date Time Source
RJOO Decoded METAR 2019/08/26 07:00 UTC NOAA

Station name not available
Aug 26, 2019 - 03:00 AM EDT / 2019.08.26 0700 UTC
Wind: from the SSW (210 degrees) at 6 MPH (5 KT) (direction variable):0
Visibility: greater than 7 mile(s):0
Sky conditions: mostly cloudy
Temperature: 87 F (31 C)
Dew Point: 66 F (19 C)
Relative Humidity: 48%
Pressure (altimeter): 29.85 in. Hg (1011 hPa)
ob: RJOO 260700Z 21005KT 160V260 9999 FEW030 BKN/// 31/19 Q1011
cycle: 7

Station Type Date Time Source
RJOO TAF 2019/08/26 06:30 UTC NOAA

TAF RJOO 260508Z 2606/2712 34005KT 9999 FEW025
BECMG 2618/2621 07005KT

Example: see airport list